Latest Weather Observations for Griffith

IDN60801

Issued at 9:32 pm EST Sunday 30 August 2015 (issued every 30 minutes, with the page automatically refreshed every 10 minutes)

About weather observations | Map of weather stations | Latest weather observations for NSW | Other Formats
Station Details ID: 075041 Name: GRIFFITH AIRPORT AWS Lat: -34.25 Lon: 146.07 Height: 134.0 m
Data from the previous 72 hours. | See also: Recent months at Griffith
Date/Time
EST
Temp
°C
App
Temp
°C
Dew
Point
Rel
Hum
%
Delta-T
°C
Wind Press
QNH
hPa
Press
MSL
hPa
Rain
since 9 am
mm
Dir
 
Spd
km/h
Gust
km/h
Spd
kts
Gust
kts
30/09:30pm 8.0 4.1 5.3 83 1.2 SW 15 19 8 10 1021.6 1021.8 0.0
30/09:00pm 8.0 4.5 5.6 85 1.1 SW 13 17 7 9 1021.6 1021.8 0.0
30/08:30pm 8.7 4.9 6.0 83 1.2 SW 15 19 8 10 1021.5 1021.7 0.0
30/08:00pm 8.4 5.0 6.0 85 1.1 SW 13 17 7 9 1021.5 1021.7 0.0
30/07:30pm 8.9 5.2 6.3 84 1.2 SW 15 17 8 9 1021.3 1021.5 0.0
30/07:00pm 9.3 5.6 6.4 82 1.3 WSW 15 17 8 9 1021.1 1021.3 0.0
30/06:30pm 10.8 8.0 6.9 77 1.9 SW 11 13 6 7 1020.9 1021.1 0.0
30/06:00pm 11.3 8.0 6.6 73 2.2 SW 13 17 7 9 1020.7 1020.9 0.0
30/05:30pm 12.6 8.0 5.8 63 3.2 SW 19 24 10 13 1020.5 1020.7 0.0
30/05:00pm 12.9 8.7 5.8 62 3.4 WSW 17 22 9 12 1020.3 1020.5 0.0
30/04:30pm 13.1 9.0 6.0 62 3.4 SSW 17 22 9 12 1020.3 1020.5 0.0
30/04:00pm 14.5 11.0 7.1 61 3.6 SW 15 20 8 11 1020.2 1020.4 0.0
30/03:30pm 13.2 9.7 5.4 59 3.7 SSW 13 20 7 11 1020.5 1020.7 0.0
30/03:00pm 13.2 9.0 5.6 60 3.6 SSW 17 26 9 14 1020.7 1020.9 0.0
30/02:30pm 14.1 9.5 6.7 61 3.6 SW 20 28 11 15 1020.8 1021.0 0.0
30/02:00pm 14.0 10.1 7.3 64 3.3 SSW 17 26 9 14 1020.9 1021.1 0.0
30/01:30pm 13.5 9.0 7.1 65 3.1 SW 20 26 11 14 1021.2 1021.4 0.0
30/01:00pm 13.1 9.4 8.0 71 2.5 SW 17 24 9 13 1021.6 1021.8 0.0
30/12:30pm 11.9 7.8 6.4 69 2.6 SW 17 24 9 13 1022.2 1022.4 0.0
30/12:00pm 12.1 8.8 8.2 77 1.9 SW 15 24 8 13 1022.6 1022.8 0.0
30/11:30am 10.9 8.5 6.8 76 2.0 S 9 17 5 9 1023.2 1023.4 0.0
30/11:00am 10.0 7.1 6.7 80 1.6 S 11 17 6 9 1023.6 1023.7 0.0
30/10:30am 9.5 6.4 7.3 86 1.0 S 13 20 7 11 1023.8 1023.9 0.0
30/10:18am 8.8 5.2 6.8 87 0.9 S 15 20 8 11 1023.9 1024.0 0.0
30/10:00am 8.6 4.3 6.9 89 0.8 S 19 24 10 13 1023.7 1023.8 0.0
30/09:30am 8.0 4.2 7.4 96 0.3 SSW 17 22 9 12 1023.8 1023.9 0.0
30/09:03am 7.0 3.4 6.9 99 0.0 SSW 15 24 8 13 1023.9 1024.0 0.0
30/09:00am 6.9 3.3 6.8 99 0.0 SSW 15 24 8 13 1023.9 1024.0 0.0
30/08:30am 6.0 2.6 6.0 100 0.0 WSW 13 19 7 10 1023.7 1023.8 0.0
30/08:15am 5.2 2.4 5.2 100 0.0 WNW 9 13 5 7 1023.6 1023.7 0.0
30/08:00am 4.6 1.7 4.6 100 0.0 WNW 9 13 5 7 1023.6 1023.7 0.0
30/07:30am 3.1 0.3 3.1 100 0.0 WNW 7 9 4 5 1023.4 1023.6 0.0
30/07:00am 1.8 -1.1 1.7 99 0.0 W 6 7 3 4 1023.1 1023.3 0.0
30/06:30am 1.0 -0.8 0.9 99 0.0 CALM 0 7 0 4 1022.9 1023.1 0.0
30/06:00am 0.6 -1.7 0.5 99 0.0 NW 2 6 1 3 1022.8 1023.0 0.0
30/05:30am 0.9 -1.3 0.8 99 0.0 N 2 7 1 4 1022.8 1023.0 0.0
30/05:00am 1.0 -0.8 0.9 99 0.0 CALM 0 6 0 3 1022.7 1022.9 0.0
30/04:30am 1.0 -2.0 0.9 99 0.0 NNW 6 7 3 4 1022.6 1022.8 0.0
30/04:00am 0.9 -2.1 0.8 99 0.0 NW 6 7 3 4 1022.8 1023.0 0.0
30/03:30am 1.5 -1.6 1.4 99 0.0 NW 7 7 4 4 1022.8 1023.0 0.0
30/03:00am 2.0 -0.1 1.9 99 0.0 NW 2 7 1 4 1023.1 1023.3 0.0
30/02:30am 1.9 -0.9 1.8 99 0.0 N 6 7 3 4 1023.4 1023.6 0.0
30/02:00am 1.6 -1.5 1.5 99 0.0 N 7 9 4 5 1023.7 1023.8 0.0
30/01:30am 2.0 -0.1 1.9 99 0.0 N 2 7 1 4 1024.0 1024.1 0.0
30/01:00am 2.4 -0.6 2.3 99 0.0 N 7 9 4 5 1024.3 1024.4 0.0
30/12:30am 2.4 0.8 2.3 99 0.0 CALM 0 0 0 0 1024.4 1024.5 0.0
30/12:00am 2.7 1.1 2.6 99 0.0 CALM 0 0 0 0 1024.5 1024.6 0.0
 
Date/Time
EST
Temp
°C
App
Temp
°C
Dew
Point
Rel
Hum
%
Delta-T
°C
Wind Press
QNH
hPa
Press
MSL
hPa
Rain
since 9 am
mm
Dir
 
Spd
km/h
Gust
km/h
Spd
kts
Gust
kts
29/11:30pm 2.8 -0.1 2.4 97 0.2 N 7 9 4 5 1024.5 1024.6 0.0
29/11:00pm 3.4 0.7 2.8 96 0.2 N 6 7 3 4 1024.6 1024.7 0.0
29/10:30pm 3.2 1.6 2.3 94 0.4 CALM 0 0 0 0 1024.6 1024.7 0.0
29/10:00pm 4.2 2.8 3.3 94 0.4 CALM 0 0 0 0 1024.7 1024.9 0.0
29/09:30pm 4.1 2.5 2.3 88 0.7 CALM 0 0 0 0 1024.7 1024.9 0.0
29/09:00pm 5.5 2.7 3.2 85 1.0 WSW 7 7 4 4 1024.6 1024.7 0.0
29/08:30pm 6.4 3.2 3.0 79 1.4 SSW 9 13 5 7 1024.6 1024.7 0.0
29/08:00pm 7.1 3.6 3.5 78 1.5 SW 11 13 6 7 1024.6 1024.7 0.0
29/07:30pm 7.5 4.0 3.4 75 1.8 SSW 11 15 6 8 1024.4 1024.5 0.0
29/07:00pm 7.9 4.3 3.2 72 2.0 SSW 11 15 6 8 1024.2 1024.3 0.0
29/06:30pm 8.3 4.7 2.8 68 2.3 SW 11 17 6 9 1024.1 1024.2 0.0
29/06:00pm 9.3 5.2 2.4 62 2.9 SW 13 20 7 11 1023.9 1024.0 0.0
29/05:30pm 10.6 6.1 2.2 56 3.6 SSW 15 22 8 12 1023.6 1023.7 0.0
29/05:00pm 11.6 6.1 1.8 51 4.2 SW 20 26 11 14 1023.4 1023.6 0.0
29/04:30pm 12.2 6.8 2.4 51 4.3 SW 20 24 11 13 1023.4 1023.6 0.0
29/04:00pm 12.5 7.7 2.4 50 4.4 SW 17 24 9 13 1023.4 1023.6 0.0
29/03:30pm 12.1 6.8 1.7 49 4.5 SW 19 24 10 13 1023.7 1023.8 0.0
29/03:00pm 12.6 7.1 4.1 56 3.8 SW 22 32 12 17 1023.8 1023.9 0.0
29/02:30pm 12.1 6.0 2.6 52 4.2 SW 24 33 13 18 1023.9 1024.0 0.0
29/02:00pm 13.1 7.2 3.7 53 4.2 SW 24 35 13 19 1024.0 1024.1 0.0
29/01:30pm 12.8 5.6 3.2 52 4.3 WSW 30 39 16 21 1024.1 1024.2 0.0
29/01:00pm 12.6 6.9 3.0 52 4.2 WSW 22 32 12 17 1024.4 1024.5 0.0
29/12:30pm 12.4 6.4 3.1 53 4.1 WSW 24 39 13 21 1024.9 1025.1 0.0
29/12:00pm 11.8 7.0 2.8 54 3.9 SW 17 24 9 13 1025.5 1025.7 0.0
29/11:30am 11.1 7.5 3.2 58 3.5 SW 11 20 6 11 1025.7 1025.9 0.0
29/11:00am 10.4 6.8 2.7 59 3.3 SSW 11 19 6 10 1026.1 1026.3 0.0
29/10:30am 9.7 5.4 3.0 63 2.9 SSW 15 22 8 12 1026.2 1026.4 0.0
29/10:00am 8.9 4.9 2.9 66 2.6 S 13 19 7 10 1026.2 1026.4 0.0
29/09:30am 8.0 3.9 4.4 78 1.6 S 15 20 8 11 1026.1 1026.3 0.0
29/09:00am 7.1 3.3 4.1 81 1.3 SSW 13 19 7 10 1026.4 1026.6 0.0
29/08:30am 6.1 2.9 5.1 93 0.4 SSW 11 15 6 8 1026.3 1026.5 0.0
29/08:00am 4.9 3.0 4.9 100 0.0 NNW 4 7 2 4 1026.0 1026.2 0.0
29/07:30am 3.2 1.7 3.2 100 0.0 CALM 0 6 0 3 1025.6 1025.8 0.0
29/07:00am 1.8 0.1 1.7 99 0.0 CALM 0 0 0 0 1025.4 1025.6 0.0
29/06:30am 1.5 -1.4 1.4 99 0.0 NNW 6 9 3 5 1025.0 1025.2 0.0
29/06:00am 2.0 0.3 1.9 99 0.0 CALM 0 0 0 0 1024.9 1025.1 0.0
29/05:30am 2.1 0.4 2.0 99 0.0 CALM 0 4 0 2 1024.7 1024.9 0.0
29/05:21am 1.9 -0.9 1.8 99 0.0 N 6 7 3 4 1024.7 1024.9 0.0
29/05:01am 1.9 0.2 1.8 99 0.0 CALM 0 7 0 4 1024.7 1024.9 0.0
29/05:00am 2.0 0.3 1.9 99 0.0 CALM 0 0 0 0 1024.7 1024.9 0.0
29/04:30am 1.8 0.1 1.7 99 0.0 CALM 0 0 0 0 1024.3 1024.4 0.0
29/04:00am 2.6 1.0 2.5 99 0.0 CALM 0 0 0 0 1024.4 1024.5 0.0
29/03:56am 2.6 1.0 2.5 99 0.0 CALM 0 0 0 0 1024.4 1024.5 0.0
29/03:39am 2.4 0.8 2.3 99 0.0 CALM 0 2 0 1 1024.4 1024.5 0.0
29/03:30am 2.6 0.6 2.5 99 0.0 WNW 2 6 1 3 1024.4 1024.5 0.0
29/03:00am 3.5 2.1 3.4 99 0.0 CALM 0 0 0 0 1024.5 1024.6 0.0
29/02:30am 2.7 1.1 2.6 99 0.0 CALM 0 0 0 0 1024.8 1025.0 0.0
29/02:00am 3.6 1.4 3.5 99 0.0 SW 4 7 2 4 1024.8 1025.0 0.0
29/01:30am 4.1 2.4 4.0 99 0.0 SW 2 7 1 4 1024.7 1024.9 0.0
29/01:00am 4.0 1.0 3.9 99 0.0 NNW 9 9 5 5 1024.8 1025.0 0.0
29/12:30am 4.2 2.1 4.1 99 0.0 WNW 4 7 2 4 1024.7 1024.9 0.0
29/12:00am 3.8 2.4 3.7 99 0.0 CALM 0 0 0 0 1024.8 1025.0 0.0
 
Date/Time
EST
Temp
°C
App
Temp
°C
Dew
Point
Rel
Hum
%
Delta-T
°C
Wind Press
QNH
hPa
Press
MSL
hPa
Rain
since 9 am
mm
Dir
 
Spd
km/h
Gust
km/h
Spd
kts
Gust
kts
28/11:30pm 4.1 2.8 4.0 99 0.0 CALM 0 0 0 0 1024.9 1025.1 0.0
28/11:00pm 4.3 3.0 4.2 99 0.0 CALM 0 0 0 0 1025.1 1025.3 0.0
28/10:30pm 4.9 3.7 4.5 97 0.2 CALM 0 0 0 0 1025.1 1025.3 0.0
28/10:00pm 6.1 3.9 5.2 94 0.4 NNE 6 7 3 4 1025.2 1025.4 0.0
28/09:30pm 5.7 3.0 3.9 88 0.8 NNW 7 9 4 5 1025.1 1025.3 0.0
28/09:00pm 8.3 6.0 4.9 79 1.5 SW 6 7 3 4 1025.0 1025.2 0.0
28/08:30pm 9.3 5.8 5.5 77 1.7 SSW 13 19 7 10 1024.8 1025.0 0.0
28/08:00pm 9.3 5.5 5.9 79 1.6 SSW 15 17 8 9 1024.6 1024.7 0.0
28/07:30pm 9.4 5.7 6.3 81 1.4 SW 15 17 8 9 1024.6 1024.7 0.0
28/07:00pm 9.7 6.4 6.2 79 1.6 SW 13 15 7 8 1024.5 1024.6 0.0
28/06:30pm 10.7 6.7 6.5 75 2.0 WSW 17 20 9 11 1024.1 1024.2 0.0
28/06:00pm 12.1 8.2 7.2 72 2.4 WSW 17 20 9 11 1024.0 1024.1 0.0
28/05:30pm 12.8 7.9 7.0 68 2.8 WSW 22 28 12 15 1023.6 1023.7 0.0
28/05:00pm 13.8 9.6 7.6 66 3.1 SW 19 28 10 15 1023.2 1023.4 0.0
28/04:30pm 14.4 9.7 7.7 64 3.3 WSW 22 30 12 16 1022.9 1023.1 0.0
28/04:00pm 15.2 11.0 8.2 63 3.5 WSW 20 28 11 15 1022.8 1023.0 0.0
28/03:30pm 15.4 10.2 7.4 59 4.0 W 24 30 13 16 1022.7 1022.9 0.0
28/03:00pm 15.0 9.9 7.5 61 3.7 WSW 24 33 13 18 1022.7 1022.9 0.0
28/02:30pm 15.3 10.7 8.3 63 3.6 WSW 22 30 12 16 1022.7 1022.9 0.0
28/02:00pm 14.9 10.8 8.6 66 3.2 WSW 20 28 11 15 1022.8 1023.0 0.0
28/01:30pm 14.5 10.6 8.7 68 3.0 WSW 19 26 10 14 1023.2 1023.4 0.0
28/01:00pm 14.2 10.7 8.6 69 2.8 WSW 17 24 9 13 1023.4 1023.6 0.0
28/12:30pm 13.9 11.5 8.5 70 2.7 WSW 11 20 6 11 1024.0 1024.1 0.0
28/12:00pm 13.1 10.4 9.0 76 2.1 WSW 13 20 7 11 1024.5 1024.6 0.0
28/11:30am 12.8 10.2 9.3 79 1.8 SW 13 20 7 11 1024.9 1025.1 0.0
28/11:00am 12.2 9.5 8.9 80 1.7 SW 13 24 7 13 1025.1 1025.3 0.0
28/10:30am 11.7 8.2 8.7 82 1.5 SSW 17 24 9 13 1025.0 1025.2 0.0
28/10:00am 10.8 7.5 7.9 82 1.4 SW 15 20 8 11 1024.9 1025.1 0.0
28/09:30am 10.1 7.6 8.0 87 1.0 SW 11 19 6 10 1024.7 1024.9 0.0
28/09:03am 9.6 6.3 8.0 90 0.8 SW 15 22 8 12 1024.6 1024.7 0.0
28/09:00am 9.6 6.3 8.2 91 0.7 SW 15 22 8 12 1024.6 1024.7 11.4
28/08:30am 8.8 6.0 8.7 99 0.0 SW 13 17 7 9 1024.3 1024.4 11.4
28/08:00am 8.1 5.2 8.0 99 0.0 WSW 13 20 7 11 1023.9 1024.0 11.4
28/07:30am 7.2 4.8 7.1 99 0.0 WSW 9 13 5 7 1023.7 1023.8 11.4
28/07:00am 6.7 3.8 6.6 99 0.0 WSW 11 13 6 7 1023.3 1023.5 11.4
28/06:30am 7.0 3.8 6.9 99 0.0 WSW 13 17 7 9 1022.9 1023.1 11.4
28/06:00am 7.4 3.9 7.3 99 0.0 WSW 15 19 8 10 1022.5 1022.7 11.4
28/05:30am 8.1 4.8 8.0 99 0.0 WSW 15 20 8 11 1022.4 1022.6 11.4
28/05:00am 8.0 5.4 7.9 99 0.0 W 11 15 6 8 1022.1 1022.3 11.4
28/04:30am 7.9 5.3 7.8 99 0.0 WNW 11 13 6 7 1022.0 1022.2 11.4
28/04:00am 7.8 4.8 7.7 99 0.0 WNW 13 17 7 9 1021.9 1022.1 11.4
28/03:30am 7.8 5.2 7.7 99 0.0 WNW 11 15 6 8 1021.7 1021.9 11.4
28/03:00am 7.7 5.4 7.6 99 0.0 W 9 13 5 7 1021.6 1021.8 11.4
28/02:30am 7.3 4.6 7.3 100 0.0 NW 11 13 6 7 1021.6 1021.8 11.4
28/02:00am 7.0 4.6 7.0 100 0.0 WNW 9 11 5 6 1021.7 1021.9 11.4
28/01:30am 6.7 4.8 6.7 100 0.0 WNW 6 7 3 4 1022.0 1022.2 11.4
28/01:00am 6.3 4.3 6.3 100 0.0 NNW 6 7 3 4 1021.9 1022.1 11.4
28/12:30am 5.6 3.4 5.5 99 0.0 NW 6 7 3 4 1022.0 1022.2 11.4
28/12:14am 5.7 3.0 5.6 99 0.0 N 9 9 5 5 1021.9 1022.1 11.4
28/12:00am 5.2 3.0 5.1 99 0.0 N 6 9 3 5 1021.9 1022.1 11.4
 
Date/Time
EST
Temp
°C
App
Temp
°C
Dew
Point
Rel
Hum
%
Delta-T
°C
Wind Press
QNH
hPa
Press
MSL
hPa
Rain
since 9 am
mm
Dir
 
Spd
km/h
Gust
km/h
Spd
kts
Gust
kts
27/11:58pm 5.1 3.2 5.0 99 0.0 N 4 9 2 5 1021.9 1022.1 11.4
27/11:30pm 5.4 4.3 5.3 99 0.0 CALM 0 0 0 0 1022.0 1022.2 11.4
27/11:18pm 6.0 5.1 5.9 99 0.0 CALM 0 0 0 0 1022.0 1022.2 11.4
27/11:11pm 6.1 5.2 6.0 99 0.0 CALM 0 0 0 0 1021.9 1022.1 11.4
27/11:00pm 6.5 5.7 6.4 99 0.0 CALM 0 0 0 0 1021.9 1022.1 11.4
27/10:30pm 6.4 4.4 6.3 99 0.0 N 6 7 3 4 1022.0 1022.2 11.2
27/10:00pm 6.7 4.8 6.6 99 0.0 N 6 7 3 4 1022.2 1022.4 11.2

Other Formats:

Comma delimited format used in spreadsheet applications
http://www.bom.gov.au/fwo/IDN60801/IDN60801.95704.axf

JavaScript Object Notation format (JSON) in row-major order
http://www.bom.gov.au/fwo/IDN60801/IDN60801.95704.json